createdAt,value
2019-03-24T00:04:09.429Z,22.10
2019-03-24T00:09:11.512Z,23.33
2019-03-24T00:14:13.767Z,22.13
2019-03-24T00:19:15.844Z,22.57
2019-03-24T00:30:18.539Z,26.47
2019-03-24T00:35:20.627Z,23.93
2019-03-24T00:40:22.886Z,21.33
2019-03-24T00:45:24.961Z,23.80
2019-03-24T00:50:27.049Z,23.63
2019-03-24T00:55:29.135Z,24.27
2019-03-24T01:00:42.342Z,24.20
2019-03-24T01:05:44.953Z,23.77
2019-03-24T01:10:47.054Z,23.40
2019-03-24T01:15:49.154Z,24.77
2019-03-24T01:20:51.239Z,22.60
2019-03-24T01:25:53.432Z,22.73
2019-03-24T01:30:55.624Z,22.57
2019-03-24T01:35:57.806Z,22.00
2019-03-24T01:40:59.883Z,23.03
2019-03-24T01:46:01.966Z,24.23
2019-03-24T01:51:04.154Z,23.30
2019-03-24T01:56:06.274Z,24.13
2019-03-24T02:01:08.357Z,23.87
2019-03-24T02:06:10.437Z,24.57
2019-03-24T02:11:12.503Z,22.73
2019-03-24T02:16:14.715Z,22.97
2019-03-24T02:21:16.803Z,23.20
2019-03-24T02:26:18.873Z,22.63
2019-03-24T02:31:21.089Z,21.43
2019-03-24T02:36:23.302Z,21.50
2019-03-24T02:41:25.374Z,19.87
2019-03-24T02:46:27.453Z,18.87
2019-03-24T02:51:29.533Z,18.63
2019-03-24T02:56:31.727Z,18.13
2019-03-24T03:01:33.892Z,18.63
2019-03-24T03:06:36.198Z,17.90
2019-03-24T03:11:38.259Z,17.17
2019-03-24T03:16:40.314Z,17.20
2019-03-24T03:21:42.571Z,17.93
2019-03-24T03:26:44.642Z,16.10
2019-03-24T03:31:46.735Z,16.07
2019-03-24T03:36:48.801Z,16.43
2019-03-24T03:41:50.859Z,15.57
2019-03-24T03:46:53.446Z,16.27
2019-03-24T03:51:55.613Z,16.50
2019-03-24T03:56:57.857Z,16.73
2019-03-24T04:01:59.957Z,16.67
2019-03-24T04:07:02.048Z,16.87
2019-03-24T04:12:04.252Z,15.83
2019-03-24T04:17:08.013Z,17.70
2019-03-24T04:22:10.270Z,16.47
2019-03-24T04:27:12.349Z,17.17
2019-03-24T04:32:14.482Z,16.60
2019-03-24T04:37:16.605Z,15.47
2019-03-24T04:42:18.721Z,16.73
2019-03-24T04:47:21.112Z,16.40
2019-03-24T04:52:23.198Z,15.83
2019-03-24T04:57:25.311Z,15.13
2019-03-24T05:02:27.428Z,15.93
2019-03-24T05:07:29.739Z,15.73
2019-03-24T05:12:31.929Z,17.07
2019-03-24T05:17:34.014Z,16.33
2019-03-24T05:22:36.120Z,16.80
2019-03-24T05:27:38.213Z,17.67
2019-03-24T05:32:40.341Z,17.10
2019-03-24T05:37:42.420Z,16.67
2019-03-24T05:42:44.609Z,16.10
2019-03-24T05:47:46.736Z,16.77
2019-03-24T05:52:48.852Z,18.10
2019-03-24T05:57:50.959Z,17.43
2019-03-24T06:02:53.065Z,18.00
2019-03-24T06:07:55.319Z,16.73
2019-03-24T06:12:57.496Z,15.67
2019-03-24T06:17:59.711Z,17.07
2019-03-24T06:23:01.911Z,17.67
2019-03-24T06:28:04.119Z,17.23
2019-03-24T06:33:06.320Z,17.27
2019-03-24T06:38:08.606Z,18.90
2019-03-24T06:43:10.709Z,16.83
2019-03-24T06:48:12.820Z,17.27
2019-03-24T06:53:14.962Z,18.33
2019-03-24T06:58:17.080Z,18.77
2019-03-24T07:03:19.171Z,18.33
2019-03-24T07:08:21.263Z,19.07
2019-03-24T07:13:23.373Z,18.87
2019-03-24T07:18:25.584Z,26.53
2019-03-24T07:23:27.800Z,19.93
2019-03-24T07:28:29.911Z,20.07
2019-03-24T07:33:32.053Z,19.40
2019-03-24T07:38:34.185Z,19.70
2019-03-24T07:43:36.288Z,20.20
2019-03-24T07:48:38.489Z,19.70
2019-03-24T07:53:40.699Z,19.97
2019-03-24T07:58:42.813Z,20.07
2019-03-24T08:03:45.097Z,18.50
2019-03-24T08:08:47.463Z,17.80
2019-03-24T08:13:54.065Z,17.97
2019-03-24T08:18:53.725Z,19.00
2019-03-24T08:23:55.953Z,18.20
2019-03-24T08:28:58.063Z,19.90
2019-03-24T08:34:00.276Z,20.17
2019-03-24T08:39:03.940Z,19.63
2019-03-24T08:44:06.147Z,18.57
2019-03-24T08:49:08.266Z,19.87
2019-03-24T08:54:10.495Z,22.97
2019-03-24T08:59:12.622Z,20.37
2019-03-24T09:04:14.846Z,20.13
2019-03-24T09:09:17.058Z,21.30
2019-03-24T09:14:19.169Z,19.77
2019-03-24T09:19:21.403Z,20.50
2019-03-24T09:24:23.620Z,19.07
2019-03-24T09:29:25.738Z,19.63
2019-03-24T09:34:27.847Z,17.67
2019-03-24T09:39:29.962Z,20.10
2019-03-24T09:44:32.045Z,19.30
2019-03-24T09:49:34.137Z,20.40
2019-03-24T09:54:36.223Z,19.87
2019-03-24T09:59:38.361Z,19.03
2019-03-24T10:04:40.460Z,18.83
2019-03-24T10:09:42.559Z,17.83
2019-03-24T10:14:44.706Z,18.70
2019-03-24T10:19:46.843Z,17.47
2019-03-24T10:24:48.950Z,18.93
2019-03-24T10:29:51.077Z,17.70
2019-03-24T10:34:53.361Z,18.70
2019-03-24T10:39:55.473Z,17.73
2019-03-24T10:44:57.590Z,15.77
2019-03-24T10:49:59.702Z,16.67
2019-03-24T10:55:02.040Z,16.55
2019-03-24T11:00:05.624Z,16.67
2019-03-24T11:05:08.317Z,16.82
2019-03-24T11:10:10.536Z,14.45
2019-03-24T11:15:12.731Z,15.72
2019-03-24T11:20:14.933Z,15.20
2019-03-24T11:25:17.058Z,13.00
2019-03-24T11:30:19.337Z,11.85
2019-03-24T11:35:21.559Z,13.37
2019-03-24T11:40:23.784Z,12.43
2019-03-24T11:45:25.912Z,12.40
2019-03-24T11:50:28.027Z,12.57
2019-03-24T11:55:30.152Z,12.50
2019-03-24T12:00:34.126Z,14.37
2019-03-24T12:05:36.626Z,15.50
2019-03-24T12:10:38.853Z,15.90
2019-03-24T12:15:41.064Z,15.87
2019-03-24T12:20:43.214Z,15.17
2019-03-24T12:25:45.404Z,13.77
2019-03-24T12:30:47.666Z,15.13
2019-03-24T12:35:49.889Z,15.10
2019-03-24T12:40:54.647Z,13.77
2019-03-24T12:45:56.826Z,13.67
2019-03-24T12:50:59.255Z,13.83
2019-03-24T12:56:01.439Z,12.80
2019-03-24T13:01:03.616Z,14.13
2019-03-24T13:06:05.700Z,14.80
2019-03-24T13:11:07.876Z,13.53
2019-03-24T13:16:09.967Z,13.97
2019-03-24T13:21:12.172Z,12.90
2019-03-24T13:26:14.280Z,12.57
2019-03-24T13:31:16.359Z,12.43
2019-03-24T13:36:18.471Z,12.17
2019-03-24T13:41:20.605Z,12.00
2019-03-24T13:46:23.064Z,14.70
2019-03-24T13:51:25.206Z,13.30
2019-03-24T13:56:27.341Z,13.27
2019-03-24T14:01:29.543Z,13.47
2019-03-24T14:06:31.805Z,13.30
2019-03-24T14:11:33.920Z,12.07
2019-03-24T14:16:36.091Z,12.67
2019-03-24T14:21:38.294Z,12.33
2019-03-24T14:26:40.376Z,12.73
2019-03-24T14:31:42.532Z,11.80
2019-03-24T14:36:44.701Z,11.50
2019-03-24T14:41:46.819Z,11.73
2019-03-24T14:46:49.048Z,10.93
2019-03-24T14:51:51.349Z,11.53
2019-03-24T14:56:53.520Z,11.03
2019-03-24T15:01:55.729Z,11.50
2019-03-24T15:06:57.920Z,10.47
2019-03-24T15:12:00.216Z,11.07
2019-03-24T15:17:02.422Z,11.03
2019-03-24T15:22:04.635Z,10.67
2019-03-24T15:27:06.758Z,10.97
2019-03-24T15:32:08.909Z,10.70
2019-03-24T15:37:11.135Z,10.70
2019-03-24T15:42:13.256Z,9.93
2019-03-24T15:47:15.374Z,11.27
2019-03-24T15:52:17.462Z,9.03
2019-03-24T15:57:22.155Z,10.10
2019-03-24T16:02:24.374Z,9.73
2019-03-24T16:07:26.453Z,10.77
2019-03-24T16:12:28.666Z,9.47
2019-03-24T16:17:30.848Z,8.10
2019-03-24T16:22:33.065Z,9.67
2019-03-24T16:27:35.223Z,8.70
2019-03-24T16:32:37.326Z,8.60
2019-03-24T16:37:39.435Z,7.40
2019-03-24T16:42:41.555Z,8.33
2019-03-24T16:47:43.634Z,7.53
2019-03-24T16:52:45.837Z,7.33
2019-03-24T16:57:49.841Z,6.83
2019-03-24T17:02:51.961Z,6.97
2019-03-24T17:07:54.165Z,7.20
2019-03-24T17:12:56.408Z,7.20
2019-03-24T17:17:58.632Z,7.57
2019-03-24T17:23:00.838Z,7.43
2019-03-24T17:28:03.115Z,9.17
2019-03-24T17:33:05.326Z,8.97
2019-03-24T17:38:07.583Z,9.77
2019-03-24T17:43:09.724Z,9.17
2019-03-24T17:48:11.919Z,9.60
2019-03-24T17:53:14.215Z,9.50
2019-03-24T17:58:16.334Z,9.33
2019-03-24T18:03:18.444Z,8.93
2019-03-24T18:08:20.607Z,8.57
2019-03-24T18:13:22.746Z,8.97
2019-03-24T18:18:24.929Z,8.73
2019-03-24T18:23:27.054Z,9.23
2019-03-24T18:28:29.153Z,9.73
2019-03-24T18:33:31.414Z,9.17
2019-03-24T18:38:33.523Z,9.87
2019-03-24T18:43:36.911Z,9.40
2019-03-24T18:48:39.043Z,9.37
2019-03-24T18:53:41.212Z,10.63
2019-03-24T18:58:43.331Z,11.03
2019-03-24T19:03:45.559Z,9.93
2019-03-24T19:08:47.699Z,10.13
2019-03-24T19:13:49.797Z,10.40
2019-03-24T19:18:51.943Z,10.73
2019-03-24T19:23:55.858Z,16.70
2019-03-24T19:28:58.150Z,12.33
2019-03-24T19:34:00.464Z,12.50
2019-03-24T19:39:04.839Z,11.43
2019-03-24T19:44:07.049Z,11.93
2019-03-24T19:49:11.430Z,14.67
2019-03-24T19:54:13.557Z,13.03
2019-03-24T19:59:15.685Z,13.17
2019-03-24T20:04:17.835Z,13.83
2019-03-24T20:09:20.040Z,13.20
2019-03-24T20:14:24.059Z,13.40
2019-03-24T20:19:26.316Z,16.00
2019-03-24T20:24:28.432Z,14.07
2019-03-24T20:29:30.560Z,13.07
2019-03-24T20:34:32.728Z,14.50
2019-03-24T20:39:34.924Z,13.40
2019-03-24T20:44:37.204Z,12.80
2019-03-24T20:49:39.297Z,12.47
2019-03-24T20:54:41.418Z,13.93
2019-03-24T20:59:43.512Z,12.63
2019-03-24T21:04:45.620Z,13.53
2019-03-24T21:09:47.786Z,13.10
2019-03-24T21:14:49.992Z,14.03
2019-03-24T21:19:52.123Z,13.07
2019-03-24T21:24:54.242Z,12.50
2019-03-24T21:29:56.372Z,13.07
2019-03-24T21:34:58.620Z,12.27
2019-03-24T21:40:00.851Z,11.57
2019-03-24T21:45:03.812Z,11.70
2019-03-24T21:50:06.922Z,10.50
2019-03-24T21:55:09.127Z,9.83
2019-03-24T22:00:11.441Z,10.07
2019-03-24T22:05:13.665Z,8.97
2019-03-24T22:10:15.761Z,9.50
2019-03-24T22:15:17.849Z,9.40
2019-03-24T22:20:19.951Z,9.10
2019-03-24T22:25:22.098Z,10.37
2019-03-24T22:30:24.367Z,11.53
2019-03-24T22:35:26.570Z,11.00
2019-03-24T22:40:28.683Z,10.80
2019-03-24T22:45:30.827Z,10.67
2019-03-24T22:50:32.919Z,11.43
2019-03-24T22:55:35.107Z,11.23
2019-03-24T23:00:56.180Z,10.57
2019-03-24T23:05:58.369Z,10.03
2019-03-24T23:11:00.500Z,10.07
2019-03-24T23:16:02.719Z,8.70
2019-03-24T23:21:04.933Z,9.03
2019-03-24T23:26:07.152Z,9.10
2019-03-24T23:31:09.340Z,8.03
2019-03-24T23:36:11.509Z,7.47
2019-03-24T23:41:14.020Z,8.30
2019-03-24T23:46:16.107Z,7.43
2019-03-24T23:51:18.196Z,7.87
2019-03-24T23:56:20.305Z,6.87
